Main page
METAR-TAF:

METAR-TAF

Airports :

Khartoum, Sudan

Khartoum International Airport

latitude: 15-36N, longitude: 032-33E, elevation: 382 m

Current weather observation

The report was made 35 minutes ago, at 05:30 UTC
Wind 13 kt from the North
Temperature 26°C
Humidity 21%
Pressure 1014 hPa
Visibility 10 km or more
no clouds below 1500 m and no cumulonimbus

METAR: HSSS 240530Z 36013KT CAVOK 26/02 Q1014 NOSIG

Time: 09:05 (06:05 UTC)

Forecast

The report was made 1 hour and 5 minutes ago, at 05:00 UTC
Forecast valid from 24 at 06 UTC to 25 at 12 UTC
Wind 10 kt from the North with gusts up to 20 kt
Visibility 10 km or more
no clouds below 1500 m and no cumulonimbus
Temporary
from 24 at 06 UTC to 24 at 09 UTC
Visibility: 6000 m

TAF: HSSS 240500Z 2406/2512 36010G20KT CAVOK TEMPO 2406/2409 6000

Weather observations and forecasts of more than 4000 airports (METAR and TAF reports).

The available stations are represented by yellow and red dots on the map.

Hover mouse over dot to see the name of the station.

Then click to see weather observations and forecasts.

To change the map : click on the green buttons with a black cross to zoom in, on the green button with a dash to zoom out, or on the green arrows for adjacent maps.


METAR-TAF: